createdAt,value
2023-05-03T00:00:20.914Z,0.30
2023-05-03T00:02:47.817Z,0.30
2023-05-03T00:05:15.977Z,0.30
2023-05-03T00:07:44.243Z,0.40
2023-05-03T00:10:18.351Z,0.30
2023-05-03T00:12:45.190Z,0.30
2023-05-03T00:15:12.080Z,0.40
2023-05-03T00:17:39.147Z,0.40
2023-05-03T00:20:07.914Z,0.30
2023-05-03T00:22:34.825Z,0.40
2023-05-03T00:25:02.267Z,0.40
2023-05-03T00:27:29.410Z,0.50
2023-05-03T00:29:56.424Z,0.40
2023-05-03T00:32:23.561Z,0.50
2023-05-03T00:34:57.125Z,0.40
2023-05-03T00:37:25.177Z,0.40
2023-05-03T00:42:19.113Z,0.35
2023-05-03T00:44:45.947Z,0.43
2023-05-03T00:47:13.098Z,0.40
2023-05-03T00:49:41.449Z,0.38
2023-05-03T00:52:09.234Z,0.40
2023-05-03T00:54:36.423Z,0.40
2023-05-03T00:57:05.109Z,0.30
2023-05-03T00:59:34.390Z,0.40
2023-05-03T01:02:02.096Z,0.40
2023-05-03T01:04:29.596Z,0.40
2023-05-03T01:07:27.676Z,0.40
2023-05-03T01:10:04.728Z,0.32
2023-05-03T01:12:34.889Z,0.40
2023-05-03T01:15:17.349Z,0.40
2023-05-03T01:18:00.130Z,0.40
2023-05-03T01:20:30.910Z,0.40
2023-05-03T01:23:05.437Z,0.35
2023-05-03T01:25:32.663Z,0.40
2023-05-03T01:27:59.866Z,0.40
2023-05-03T01:30:28.206Z,0.40
2023-05-03T01:33:17.198Z,0.30
2023-05-03T01:35:56.504Z,0.35
2023-05-03T01:38:24.025Z,0.50
2023-05-03T01:40:53.901Z,0.47
2023-05-03T01:43:23.033Z,0.40
2023-05-03T01:45:53.907Z,0.50
2023-05-03T01:48:21.025Z,0.30
2023-05-03T01:50:48.011Z,0.32
2023-05-03T01:53:15.075Z,0.40
2023-05-03T01:55:41.914Z,0.40
2023-05-03T01:58:08.896Z,0.30
2023-05-03T02:00:35.811Z,0.40
2023-05-03T02:03:02.683Z,0.38
2023-05-03T02:05:29.616Z,0.38
2023-05-03T02:07:56.541Z,0.30
2023-05-03T02:10:23.456Z,0.50
2023-05-03T02:12:50.558Z,0.40
2023-05-03T02:15:20.173Z,0.40
2023-05-03T02:17:50.869Z,0.40
2023-05-03T02:20:18.288Z,0.43
2023-05-03T02:22:45.281Z,0.30
2023-05-03T02:25:12.201Z,0.47
2023-05-03T02:27:39.202Z,0.40
2023-05-03T02:30:07.854Z,0.50
2023-05-03T02:32:34.829Z,0.32
2023-05-03T02:35:02.002Z,0.40
2023-05-03T02:37:28.834Z,0.40
2023-05-03T02:39:55.849Z,0.40
2023-05-03T02:42:22.804Z,0.30
2023-05-03T02:44:49.665Z,0.40
2023-05-03T02:47:16.562Z,0.43
2023-05-03T02:49:43.427Z,0.40
2023-05-03T02:52:10.424Z,0.50
2023-05-03T02:54:37.326Z,0.30
2023-05-03T02:57:04.751Z,0.40
2023-05-03T02:59:32.957Z,0.40
2023-05-03T03:01:59.799Z,0.43
2023-05-03T03:04:26.610Z,0.40
2023-05-03T03:06:56.842Z,0.45
2023-05-03T03:09:23.524Z,0.40
2023-05-03T03:11:53.420Z,0.45
2023-05-03T03:14:20.220Z,0.50
2023-05-03T03:16:47.108Z,0.45
2023-05-03T03:19:13.906Z,0.40
2023-05-03T03:21:40.828Z,0.50
2023-05-03T03:24:07.649Z,0.45
2023-05-03T03:26:34.464Z,0.40
2023-05-03T03:29:01.633Z,0.40
2023-05-03T03:31:28.424Z,0.50
2023-05-03T03:33:55.126Z,0.40
2023-05-03T03:36:21.940Z,0.50
2023-05-03T03:38:48.668Z,0.40
2023-05-03T03:41:15.453Z,0.50
2023-05-03T03:43:42.391Z,0.40
2023-05-03T03:46:12.331Z,0.45
2023-05-03T03:48:39.348Z,0.45
2023-05-03T03:51:06.874Z,0.50
2023-05-03T03:53:33.817Z,0.43
2023-05-03T03:56:00.785Z,0.50
2023-05-03T03:58:27.691Z,0.40
2023-05-03T04:00:55.197Z,0.40
2023-05-03T04:03:22.386Z,0.40
2023-05-03T04:05:52.650Z,0.50
2023-05-03T04:08:19.720Z,0.40
2023-05-03T04:10:46.716Z,0.43
2023-05-03T04:13:13.626Z,0.50
2023-05-03T04:15:40.552Z,0.50
2023-05-03T04:18:07.646Z,0.40
2023-05-03T04:20:34.955Z,0.53
2023-05-03T04:23:01.818Z,0.50
2023-05-03T04:25:31.929Z,0.45
2023-05-03T04:27:59.032Z,0.32
2023-05-03T04:30:25.940Z,0.50
2023-05-03T04:33:02.283Z,0.40
2023-05-03T04:35:29.169Z,0.50
2023-05-03T04:37:56.146Z,0.50
2023-05-03T04:40:23.120Z,0.43
2023-05-03T04:42:50.034Z,0.50
2023-05-03T04:45:16.897Z,0.40
2023-05-03T04:47:43.802Z,0.40
2023-05-03T04:50:11.379Z,0.47
2023-05-03T04:52:38.461Z,0.57
2023-05-03T04:55:05.864Z,0.50
2023-05-03T04:57:34.144Z,0.47
2023-05-03T05:00:01.537Z,0.40
2023-05-03T05:02:29.139Z,0.50
2023-05-03T05:04:56.081Z,0.50
2023-05-03T05:07:22.999Z,0.40
2023-05-03T05:09:49.856Z,0.40
2023-05-03T05:12:16.723Z,0.40
2023-05-03T05:14:43.582Z,0.40
2023-05-03T05:17:10.508Z,0.40
2023-05-03T05:19:37.502Z,0.47
2023-05-03T05:22:04.752Z,0.45
2023-05-03T05:24:31.564Z,0.30
2023-05-03T05:26:58.557Z,0.30
2023-05-03T05:29:25.276Z,0.43
2023-05-03T05:31:53.050Z,0.40
2023-05-03T05:36:46.842Z,0.40
2023-05-03T05:39:13.759Z,0.40
2023-05-03T05:41:40.428Z,0.40
2023-05-03T05:44:08.215Z,0.30
2023-05-03T05:46:35.130Z,0.50
2023-05-03T05:49:01.969Z,0.40
2023-05-03T05:51:30.818Z,0.30
2023-05-03T05:53:58.890Z,0.30
2023-05-03T05:56:26.554Z,0.30
2023-05-03T05:58:53.434Z,0.40
2023-05-03T06:01:20.520Z,0.40
2023-05-03T06:03:47.300Z,0.30
2023-05-03T06:06:14.293Z,0.35
2023-05-03T06:08:41.135Z,0.40
2023-05-03T06:11:08.301Z,0.40
2023-05-03T06:13:38.603Z,0.30
2023-05-03T06:16:06.096Z,0.40
2023-05-03T06:18:33.107Z,0.30
2023-05-03T06:20:59.889Z,0.40
2023-05-03T06:23:30.099Z,0.40
2023-05-03T06:25:57.508Z,0.30
2023-05-03T06:28:24.424Z,0.40
2023-05-03T06:30:51.858Z,0.40
2023-05-03T06:33:18.797Z,0.30
2023-05-03T06:35:47.231Z,0.47
2023-05-03T06:38:14.168Z,0.40
2023-05-03T06:40:43.652Z,0.30
2023-05-03T06:43:10.313Z,0.30
2023-05-03T06:45:37.027Z,0.30
2023-05-03T06:48:04.083Z,0.40
2023-05-03T06:50:31.169Z,0.30
2023-05-03T06:52:57.961Z,0.40
2023-05-03T06:55:24.647Z,0.30
2023-05-03T06:57:52.585Z,0.20
2023-05-03T07:02:47.992Z,0.40
2023-05-03T07:05:15.454Z,0.30
2023-05-03T07:07:42.217Z,0.38
2023-05-03T07:10:09.362Z,0.28
2023-05-03T07:12:36.064Z,0.30
2023-05-03T07:15:02.878Z,0.30
2023-05-03T07:17:30.063Z,0.30
2023-05-03T07:19:57.058Z,0.30
2023-05-03T07:22:27.501Z,0.40
2023-05-03T07:24:59.549Z,0.40
2023-05-03T07:27:26.881Z,0.30
2023-05-03T07:29:53.783Z,0.30
2023-05-03T07:32:21.790Z,0.40
2023-05-03T07:34:48.694Z,0.30
2023-05-03T07:37:15.595Z,0.32
2023-05-03T07:39:42.757Z,0.30
2023-05-03T07:42:10.115Z,0.30
2023-05-03T07:44:36.778Z,0.40
2023-05-03T07:47:04.273Z,0.32
2023-05-03T07:49:35.424Z,0.30
2023-05-03T07:52:02.679Z,0.30
2023-05-03T07:54:29.498Z,0.30
2023-05-03T07:56:56.397Z,0.30
2023-05-03T07:59:23.153Z,0.40
2023-05-03T08:01:50.301Z,0.40
2023-05-03T08:04:17.361Z,0.30
2023-05-03T08:06:44.377Z,0.30
2023-05-03T08:09:11.688Z,0.40
2023-05-03T08:11:38.385Z,0.30
2023-05-03T08:14:05.069Z,0.30
2023-05-03T08:16:31.824Z,0.30
2023-05-03T08:18:58.482Z,0.28
2023-05-03T08:21:26.263Z,0.30
2023-05-03T08:23:53.325Z,0.25
2023-05-03T08:26:22.109Z,0.30
2023-05-03T08:28:48.816Z,0.20
2023-05-03T08:31:15.827Z,0.30
2023-05-03T08:33:43.729Z,0.30
2023-05-03T08:36:10.480Z,0.20
2023-05-03T08:38:41.185Z,0.38
2023-05-03T08:41:17.399Z,0.25
2023-05-03T08:43:46.607Z,0.30
2023-05-03T08:46:13.909Z,0.20
2023-05-03T08:48:40.747Z,0.30
2023-05-03T08:51:10.045Z,0.30
2023-05-03T08:53:36.929Z,0.20
2023-05-03T08:56:08.289Z,0.22
2023-05-03T08:58:36.674Z,0.30
2023-05-03T09:01:07.932Z,0.30
2023-05-03T09:03:36.239Z,0.20
2023-05-03T09:06:03.512Z,0.30
2023-05-03T09:08:31.388Z,0.30
2023-05-03T09:10:58.138Z,0.30
2023-05-03T09:13:32.003Z,0.30
2023-05-03T09:15:58.889Z,0.30
2023-05-03T09:18:26.946Z,0.20
2023-05-03T09:20:53.736Z,0.20
2023-05-03T09:23:26.349Z,0.30
2023-05-03T09:25:53.224Z,0.20
2023-05-03T09:28:20.994Z,0.30
2023-05-03T09:30:49.357Z,0.30
2023-05-03T09:33:22.457Z,0.38
2023-05-03T09:36:03.448Z,0.30
2023-05-03T09:38:32.622Z,0.30
2023-05-03T09:40:59.867Z,0.30
2023-05-03T09:43:26.745Z,0.35
2023-05-03T09:46:17.166Z,0.30
2023-05-03T09:48:44.197Z,0.28
2023-05-03T09:51:13.364Z,0.22
2023-05-03T09:53:41.697Z,0.30
2023-05-03T09:56:14.865Z,0.30
2023-05-03T09:58:43.541Z,0.30
2023-05-03T10:01:10.893Z,0.20
2023-05-03T10:03:50.640Z,0.30
2023-05-03T10:06:31.821Z,0.30
2023-05-03T10:09:12.275Z,0.20
2023-05-03T10:11:39.476Z,0.30
2023-05-03T10:14:07.680Z,0.20
2023-05-03T10:16:38.850Z,0.30
2023-05-03T10:19:34.518Z,0.30
2023-05-03T10:22:08.714Z,0.30
2023-05-03T10:24:36.959Z,0.30
2023-05-03T10:27:08.331Z,0.20
2023-05-03T10:29:35.174Z,0.20
2023-05-03T10:32:29.505Z,0.30
2023-05-03T10:34:59.491Z,0.30
2023-05-03T10:37:27.465Z,0.30
2023-05-03T10:42:26.614Z,0.30
2023-05-03T10:44:54.547Z,0.30
2023-05-03T10:47:23.648Z,0.30
2023-05-03T10:50:15.244Z,0.30
2023-05-03T10:52:42.093Z,0.25
2023-05-03T10:55:10.642Z,0.40
2023-05-03T10:57:43.772Z,0.30
2023-05-03T11:00:14.436Z,0.30
2023-05-03T11:03:20.017Z,0.20
2023-05-03T11:05:48.566Z,0.30
2023-05-03T11:08:21.053Z,0.30
2023-05-03T11:10:49.527Z,0.30
2023-05-03T11:13:16.430Z,0.20
2023-05-03T11:15:43.439Z,0.30
2023-05-03T11:18:12.114Z,0.30
2023-05-03T11:20:38.900Z,0.30
2023-05-03T11:23:07.086Z,0.30
2023-05-03T11:25:34.617Z,0.30
2023-05-03T11:28:02.169Z,0.40
2023-05-03T11:30:30.591Z,0.30
2023-05-03T11:33:01.125Z,0.25
2023-05-03T11:35:30.135Z,0.20
2023-05-03T11:37:57.591Z,0.30
2023-05-03T11:40:24.761Z,0.30
2023-05-03T11:42:59.790Z,0.30
2023-05-03T11:45:47.312Z,0.30
2023-05-03T11:48:14.847Z,0.30
2023-05-03T11:50:46.417Z,0.30
2023-05-03T11:53:14.501Z,0.20
2023-05-03T11:55:43.007Z,0.30
2023-05-03T11:58:15.421Z,0.20
2023-05-03T12:00:50.927Z,0.20
2023-05-03T12:03:31.764Z,0.30
2023-05-03T12:06:02.318Z,0.30
2023-05-03T12:08:32.885Z,0.20
2023-05-03T12:11:03.896Z,0.30
2023-05-03T12:13:37.501Z,0.30
2023-05-03T12:16:12.614Z,0.30
2023-05-03T12:19:01.936Z,0.30
2023-05-03T12:24:20.674Z,0.30
2023-05-03T12:26:48.940Z,0.20
2023-05-03T12:29:17.976Z,0.20
2023-05-03T12:31:49.098Z,0.20
2023-05-03T12:34:32.762Z,0.20
2023-05-03T12:37:04.824Z,0.28
2023-05-03T12:39:32.896Z,0.25
2023-05-03T12:44:34.993Z,0.30
2023-05-03T12:47:02.935Z,0.20
2023-05-03T12:49:30.181Z,0.20
2023-05-03T12:52:18.646Z,0.20
2023-05-03T12:54:49.146Z,0.20
2023-05-03T12:57:22.526Z,0.22
2023-05-03T12:59:54.661Z,0.22
2023-05-03T13:04:59.963Z,0.20
2023-05-03T13:07:30.975Z,0.20
2023-05-03T13:12:29.273Z,0.30
2023-05-03T13:17:23.352Z,0.30
2023-05-03T13:19:51.438Z,0.22
2023-05-03T13:22:18.575Z,0.25
2023-05-03T13:24:46.860Z,0.30
2023-05-03T13:27:14.089Z,0.30
2023-05-03T13:32:09.414Z,0.30
2023-05-03T13:34:36.881Z,0.30
2023-05-03T13:37:04.625Z,0.30
2023-05-03T13:39:34.557Z,0.20
2023-05-03T13:42:02.284Z,0.30
2023-05-03T13:44:29.342Z,0.20
2023-05-03T13:46:56.389Z,0.20
2023-05-03T13:49:23.471Z,0.20
2023-05-03T13:51:50.220Z,0.20
2023-05-03T13:54:17.133Z,0.20
2023-05-03T13:56:44.340Z,0.20
2023-05-03T14:01:38.763Z,0.20
2023-05-03T14:04:06.016Z,0.30
2023-05-03T14:06:33.625Z,0.30
2023-05-03T14:09:02.368Z,0.30
2023-05-03T14:11:30.622Z,0.20
2023-05-03T14:13:58.497Z,0.20
2023-05-03T14:18:57.190Z,0.20
2023-05-03T14:21:24.152Z,0.25
2023-05-03T14:23:54.191Z,0.30
2023-05-03T14:26:22.190Z,0.20
2023-05-03T14:28:49.139Z,0.20
2023-05-03T14:31:16.530Z,0.20
2023-05-03T14:33:44.545Z,0.20
2023-05-03T14:36:11.768Z,0.22
2023-05-03T14:41:05.198Z,0.30
2023-05-03T14:43:32.382Z,0.30
2023-05-03T14:48:26.337Z,0.20
2023-05-03T14:50:54.401Z,0.30
2023-05-03T14:53:22.544Z,0.20
2023-05-03T14:55:50.151Z,0.20
2023-05-03T14:58:17.089Z,0.30
2023-05-03T15:00:44.078Z,0.20
2023-05-03T15:03:12.149Z,0.30
2023-05-03T15:05:57.550Z,0.20
2023-05-03T15:08:24.355Z,0.20
2023-05-03T15:10:52.583Z,0.20
2023-05-03T15:13:20.334Z,0.20
2023-05-03T15:15:48.284Z,0.25
2023-05-03T15:18:18.611Z,0.28
2023-05-03T15:20:47.566Z,0.20
2023-05-03T15:23:14.579Z,0.20
2023-05-03T15:25:41.524Z,0.22
2023-05-03T15:28:08.270Z,0.22
2023-05-03T15:30:35.390Z,0.20
2023-05-03T15:33:02.401Z,0.30
2023-05-03T15:35:29.360Z,0.20
2023-05-03T15:37:56.398Z,0.20
2023-05-03T15:40:26.733Z,0.20
2023-05-03T15:42:53.893Z,0.20
2023-05-03T15:45:23.339Z,0.30
2023-05-03T15:47:50.388Z,0.20
2023-05-03T15:50:17.510Z,0.20
2023-05-03T15:52:46.534Z,0.20
2023-05-03T15:55:13.537Z,0.20
2023-05-03T15:57:40.961Z,0.30
2023-05-03T16:02:40.706Z,0.20
2023-05-03T16:05:09.084Z,0.20
2023-05-03T16:07:36.173Z,0.20
2023-05-03T16:10:03.225Z,0.15
2023-05-03T16:14:57.411Z,0.20
2023-05-03T16:19:51.518Z,0.20
2023-05-03T16:22:18.320Z,0.20
2023-05-03T16:24:46.810Z,0.28
2023-05-03T16:27:13.980Z,0.20
2023-05-03T16:29:43.144Z,0.20
2023-05-03T16:32:11.150Z,0.30
2023-05-03T16:34:38.130Z,0.30
2023-05-03T16:37:05.019Z,0.30
2023-05-03T16:39:33.213Z,0.25
2023-05-03T16:42:00.086Z,0.30
2023-05-03T16:44:27.623Z,0.20
2023-05-03T16:46:54.325Z,0.30
2023-05-03T16:49:21.596Z,0.30
2023-05-03T16:51:50.660Z,0.30
2023-05-03T16:54:21.042Z,0.20
2023-05-03T16:56:47.846Z,0.20
2023-05-03T16:59:16.849Z,0.20
2023-05-03T17:01:43.823Z,0.30
2023-05-03T17:04:11.118Z,0.30
2023-05-03T17:06:38.027Z,0.20
2023-05-03T17:09:05.166Z,0.30
2023-05-03T17:11:32.296Z,0.30
2023-05-03T17:14:02.608Z,0.30
2023-05-03T17:16:29.666Z,0.30
2023-05-03T17:18:56.786Z,0.23
2023-05-03T17:21:25.088Z,0.30
2023-05-03T17:23:51.971Z,0.20
2023-05-03T17:26:21.249Z,0.30
2023-05-03T17:28:48.617Z,0.30
2023-05-03T17:31:15.525Z,0.20
2023-05-03T17:33:42.258Z,0.30
2023-05-03T17:36:09.315Z,0.20
2023-05-03T17:38:36.191Z,0.27
2023-05-03T17:41:06.145Z,0.17
2023-05-03T17:43:36.284Z,0.20
2023-05-03T17:46:11.465Z,0.20
2023-05-03T17:48:40.600Z,0.30
2023-05-03T17:51:08.114Z,0.30
2023-05-03T17:53:35.507Z,0.30
2023-05-03T17:56:02.200Z,0.30
2023-05-03T17:58:29.215Z,0.30
2023-05-03T18:00:57.288Z,0.30
2023-05-03T18:03:25.746Z,0.20
2023-05-03T18:05:53.142Z,0.20
2023-05-03T18:08:20.496Z,0.22
2023-05-03T18:10:47.680Z,0.30
2023-05-03T18:13:14.726Z,0.30
2023-05-03T18:15:42.290Z,0.20
2023-05-03T18:18:09.733Z,0.20
2023-05-03T18:20:36.763Z,0.30
2023-05-03T18:23:04.809Z,0.30
2023-05-03T18:25:32.043Z,0.30
2023-05-03T18:27:58.826Z,0.30
2023-05-03T18:30:28.141Z,0.25
2023-05-03T18:33:00.805Z,0.30
2023-05-03T18:35:27.618Z,0.20
2023-05-03T18:37:54.378Z,0.25
2023-05-03T18:40:21.230Z,0.20
2023-05-03T18:42:48.077Z,0.20
2023-05-03T18:53:41.146Z,0.20
2023-05-03T18:56:07.833Z,0.20
2023-05-03T18:58:34.711Z,0.30
2023-05-03T19:01:01.618Z,0.30
2023-05-03T19:03:29.678Z,0.30
2023-05-03T19:06:00.473Z,0.20
2023-05-03T19:08:28.200Z,0.30
2023-05-03T19:10:54.876Z,0.28
2023-05-03T19:13:21.633Z,0.20
2023-05-03T19:15:48.586Z,0.30
2023-05-03T19:18:16.639Z,0.30
2023-05-03T19:20:43.531Z,0.20
2023-05-03T19:23:10.355Z,0.30
2023-05-03T19:25:37.942Z,0.30
2023-05-03T19:28:06.704Z,0.30
2023-05-03T19:30:34.057Z,0.30
2023-05-03T19:33:00.984Z,0.30
2023-05-03T19:35:27.795Z,0.30
2023-05-03T19:37:54.748Z,0.28
2023-05-03T19:40:22.328Z,0.30
2023-05-03T19:42:50.523Z,0.25
2023-05-03T19:45:17.239Z,0.30
2023-05-03T19:47:44.689Z,0.28
2023-05-03T19:50:12.852Z,0.20
2023-05-03T19:52:39.736Z,0.20
2023-05-03T19:55:07.677Z,0.30
2023-05-03T20:00:02.554Z,0.30
2023-05-03T20:02:29.831Z,0.30
2023-05-03T20:04:56.605Z,0.30
2023-05-03T20:07:23.431Z,0.30
2023-05-03T20:09:50.147Z,0.20
2023-05-03T20:12:17.042Z,0.30
2023-05-03T20:14:44.034Z,0.30
2023-05-03T20:17:10.858Z,0.20
2023-05-03T20:19:38.618Z,0.20
2023-05-03T20:22:05.621Z,0.20
2023-05-03T20:24:32.794Z,0.30
2023-05-03T20:26:59.609Z,0.20
2023-05-03T20:29:26.584Z,0.28
2023-05-03T20:31:53.848Z,0.20
2023-05-03T20:34:21.018Z,0.20
2023-05-03T20:36:47.745Z,0.20
2023-05-03T20:39:14.412Z,0.30
2023-05-03T20:41:41.271Z,0.30
2023-05-03T20:44:08.076Z,0.30
2023-05-03T20:46:35.611Z,0.30
2023-05-03T20:49:02.649Z,0.30
2023-05-03T20:51:29.328Z,0.30
2023-05-03T20:53:56.455Z,0.30
2023-05-03T20:56:23.116Z,0.40
2023-05-03T20:58:49.920Z,0.30
2023-05-03T21:01:17.789Z,0.20
2023-05-03T21:06:11.841Z,0.30
2023-05-03T21:08:38.710Z,0.22
2023-05-03T21:11:05.992Z,0.30
2023-05-03T21:13:35.941Z,0.30
2023-05-03T21:16:02.907Z,0.30
2023-05-03T21:18:29.780Z,0.30
2023-05-03T21:20:56.540Z,0.32
2023-05-03T21:23:23.403Z,0.30
2023-05-03T21:25:50.231Z,0.30
2023-05-03T21:28:17.316Z,0.30
2023-05-03T21:30:44.333Z,0.30
2023-05-03T21:33:12.237Z,0.30
2023-05-03T21:35:39.038Z,0.28
2023-05-03T21:38:06.554Z,0.30
2023-05-03T21:40:33.485Z,0.40
2023-05-03T21:43:00.263Z,0.30
2023-05-03T21:45:27.081Z,0.30
2023-05-03T21:47:53.873Z,0.20
2023-05-03T21:50:20.789Z,0.30
2023-05-03T21:52:47.558Z,0.30
2023-05-03T21:55:14.264Z,0.30
2023-05-03T21:57:40.921Z,0.28
2023-05-03T22:00:08.708Z,0.32
2023-05-03T22:02:35.667Z,0.30
2023-05-03T22:05:02.547Z,0.30
2023-05-03T22:07:29.560Z,0.30
2023-05-03T22:09:56.393Z,0.35
2023-05-03T22:12:24.804Z,0.30
2023-05-03T22:14:52.684Z,0.30
2023-05-03T22:17:19.533Z,0.28
2023-05-03T22:19:46.275Z,0.30
2023-05-03T22:22:13.035Z,0.30
2023-05-03T22:24:40.841Z,0.30
2023-05-03T22:29:34.843Z,0.30
2023-05-03T22:32:01.889Z,0.30
2023-05-03T22:34:29.215Z,0.30
2023-05-03T22:36:56.086Z,0.20
2023-05-03T22:39:22.799Z,0.30
2023-05-03T22:41:49.526Z,0.20
2023-05-03T22:44:16.325Z,0.20
2023-05-03T22:46:42.988Z,0.28
2023-05-03T22:49:09.760Z,0.30
2023-05-03T22:51:36.445Z,0.30
2023-05-03T22:54:03.238Z,0.30
2023-05-03T22:56:30.045Z,0.20
2023-05-03T22:58:56.867Z,0.30
2023-05-03T23:01:26.053Z,0.32
2023-05-03T23:03:52.957Z,0.30
2023-05-03T23:06:19.877Z,0.30
2023-05-03T23:08:46.814Z,0.40
2023-05-03T23:11:13.645Z,0.30
2023-05-03T23:13:40.432Z,0.30
2023-05-03T23:16:08.041Z,0.30
2023-05-03T23:18:34.869Z,0.30
2023-05-03T23:21:01.765Z,0.30
2023-05-03T23:23:29.066Z,0.30
2023-05-03T23:25:55.979Z,0.30
2023-05-03T23:28:23.332Z,0.40
2023-05-03T23:30:51.320Z,0.30
2023-05-03T23:33:18.656Z,0.30
2023-05-03T23:35:46.270Z,0.20
2023-05-03T23:38:13.262Z,0.30
2023-05-03T23:40:40.281Z,0.30
2023-05-03T23:43:07.077Z,0.30
2023-05-03T23:45:34.147Z,0.30
2023-05-03T23:48:00.923Z,0.30
2023-05-03T23:50:27.792Z,0.30
2023-05-03T23:52:54.575Z,0.30
2023-05-03T23:55:21.335Z,0.32
2023-05-03T23:57:48.210Z,0.30
